Time;durP1;ratioP1;P1;durP2;ratioP2;P2;SDS_P1;SDS_P2;PMS_P1;PMS_P2;Temp;Humidity;BMP_temperature;BMP_pressure;BME280_temperature;BME280_humidity;BME280_pressure;Samples;Min_cycle;Max_cycle;Signal;HPM_P1;HPM_P2
2022/07/26 00:00:48;;;;;;;17.70;3.67;;;19.80;99.90;;;;;;5092220;28;20265;-85
2022/07/26 00:03:15;;;;;;;27.80;4.85;;;19.60;99.90;;;;;;5085110;28;20208;-83
2022/07/26 00:05:42;;;;;;;20.45;4.15;;;19.60;99.90;;;;;;5086949;28;20198;-85
2022/07/26 00:08:09;;;;;;;17.40;3.65;;;19.70;99.90;;;;;;5082757;28;20208;-85
2022/07/26 00:10:43;;;;;;;16.20;3.42;;;19.70;99.90;;;;;;5080510;28;20203;-86
2022/07/26 00:13:10;;;;;;;13.88;3.47;;;19.70;99.90;;;;;;5088530;28;20206;-84
2022/07/26 00:15:38;;;;;;;15.43;3.63;;;19.30;99.90;;;;;;5082570;28;20204;-84
2022/07/26 00:18:05;;;;;;;9.60;3.65;;;19.60;99.90;;;;;;5085465;28;20576;-84
2022/07/26 00:20:37;;;;;;;15.07;3.80;;;19.30;99.90;;;;;;5083058;28;20195;-84
2022/07/26 00:23:04;;;;;;;12.50;3.92;;;19.60;99.90;;;;;;5075110;28;20299;-84
2022/07/26 00:25:31;;;;;;;13.77;3.22;;;19.70;99.90;;;;;;5079658;28;20213;-84
2022/07/26 00:27:59;;;;;;;18.00;4.03;;;19.70;99.90;;;;;;5073838;28;20234;-85
2022/07/26 00:30:27;;;;;;;13.13;3.53;;;19.90;99.90;;;;;;5089347;28;20225;-84
2022/07/26 00:32:54;;;;;;;16.70;4.88;;;19.70;99.90;;;;;;5076734;28;20697;-85
2022/07/26 00:35:21;;;;;;;22.33;4.60;;;19.80;99.90;;;;;;5080934;28;20577;-84
2022/07/26 00:37:51;;;;;;;12.88;4.22;;;19.90;99.90;;;;;;5087449;28;20206;-84
2022/07/26 00:40:18;;;;;;;18.38;3.83;;;19.80;99.90;;;;;;5082928;28;20729;-85
2022/07/26 00:42:46;;;;;;;23.35;4.43;;;19.80;99.90;;;;;;5080309;28;20216;-86
2022/07/26 00:45:17;;;;;;;13.68;3.83;;;20.30;99.90;;;;;;5083774;28;20200;-86
2022/07/26 00:47:44;;;;;;;13.85;3.90;;;19.90;99.90;;;;;;5076088;28;20227;-85
2022/07/26 00:50:14;;;;;;;19.90;4.20;;;19.80;99.90;;;;;;5080527;28;20208;-84
2022/07/26 00:52:43;;;;;;;18.73;4.20;;;20.20;99.90;;;;;;5076864;28;20207;-83
2022/07/26 00:55:12;;;;;;;18.35;3.65;;;19.80;99.90;;;;;;5083875;28;20227;-84
2022/07/26 00:57:40;;;;;;;12.48;3.55;;;19.80;99.90;;;;;;5081983;28;21062;-84
2022/07/26 01:00:11;;;;;;;17.70;4.13;;;20.00;99.90;;;;;;5076902;28;20216;-84
2022/07/26 01:02:42;;;;;;;12.95;3.53;;;19.70;99.90;;;;;;5093470;28;20275;-85
2022/07/26 01:05:09;;;;;;;14.73;3.60;;;19.60;99.90;;;;;;5094347;28;20221;-85
2022/07/26 01:07:37;;;;;;;15.60;4.10;;;19.60;99.90;;;;;;5091704;28;20223;-85
2022/07/26 01:10:07;;;;;;;16.90;4.35;;;19.60;99.90;;;;;;5085905;28;20202;-85
2022/07/26 01:12:34;;;;;;;18.50;4.07;;;19.60;99.90;;;;;;5087826;28;20202;-84
2022/07/26 01:15:01;;;;;;;18.67;3.72;;;19.90;99.90;;;;;;5088038;28;20208;-84
2022/07/26 01:17:28;;;;;;;20.67;3.72;;;19.60;99.90;;;;;;5077047;28;20612;-84
2022/07/26 01:19:58;;;;;;;17.75;3.92;;;19.60;99.90;;;;;;5080657;28;20241;-84
2022/07/26 01:22:25;;;;;;;12.68;3.78;;;19.60;99.90;;;;;;5078879;28;20270;-86
2022/07/26 01:24:52;;;;;;;14.65;3.58;;;19.60;99.90;;;;;;5084285;28;20245;-84
2022/07/26 01:27:19;;;;;;;17.95;4.55;;;19.70;99.90;;;;;;5077576;28;20242;-85
2022/07/26 01:29:48;;;;;;;16.85;4.20;;;19.60;99.90;;;;;;5079097;28;20204;-85
2022/07/26 01:32:15;;;;;;;14.30;4.15;;;19.50;99.90;;;;;;5083382;28;20216;-84
2022/07/26 01:34:43;;;;;;;13.35;4.07;;;19.60;99.90;;;;;;5085387;28;20193;-83
2022/07/26 01:37:15;;;;;;;16.13;4.00;;;19.60;99.90;;;;;;5094346;28;20214;-84
2022/07/26 01:39:44;;;;;;;19.58;4.03;;;19.40;99.90;;;;;;5084356;28;20668;-85
2022/07/26 01:42:11;;;;;;;16.67;3.70;;;19.40;99.90;;;;;;5085837;28;20211;-86
2022/07/26 01:44:39;;;;;;;18.83;3.28;;;19.50;99.90;;;;;;5086729;28;20253;-84
2022/07/26 01:47:09;;;;;;;17.38;4.05;;;19.50;99.90;;;;;;5080042;28;20263;-85
2022/07/26 01:49:36;;;;;;;17.90;3.38;;;19.40;99.90;;;;;;5083196;28;20204;-87
2022/07/26 01:52:03;;;;;;;19.60;4.57;;;19.40;99.90;;;;;;5082530;28;20211;-84
2022/07/26 01:54:30;;;;;;;15.73;3.85;;;19.40;99.90;;;;;;5081481;28;20196;-84
2022/07/26 01:56:57;;;;;;;16.15;4.05;;;19.70;99.90;;;;;;5080031;28;20230;-85
2022/07/26 01:59:24;;;;;;;16.20;4.07;;;19.50;99.90;;;;;;5071145;28;20216;-85
2022/07/26 02:01:51;;;;;;;14.85;3.97;;;19.30;99.90;;;;;;5086858;28;20200;-83
2022/07/26 02:07:13;;;;;;;15.18;4.47;;;19.20;99.90;;;;;;5081673;28;20349;-85
2022/07/26 02:09:40;;;;;;;18.33;5.15;;;19.20;99.90;;;;;;5087781;28;20735;-84
2022/07/26 02:12:07;;;;;;;19.05;4.32;;;19.20;99.90;;;;;;5087450;28;20206;-85
2022/07/26 02:14:35;;;;;;;18.35;4.75;;;19.10;99.90;;;;;;5083456;28;20240;-87
2022/07/26 02:17:02;;;;;;;16.58;4.60;;;19.10;99.90;;;;;;5089484;28;20256;-83
2022/07/26 02:19:32;;;;;;;17.13;4.55;;;19.10;99.90;;;;;;5097114;28;20215;-83
2022/07/26 02:21:59;;;;;;;14.38;4.63;;;19.10;99.90;;;;;;5095337;28;20204;-83
2022/07/26 02:24:30;;;;;;;17.50;4.57;;;19.10;99.90;;;;;;5098058;28;20271;-86
2022/07/26 02:26:58;;;;;;;19.45;6.05;;;19.00;99.90;;;;;;5093274;28;20234;-83
2022/07/26 02:29:25;;;;;;;16.98;4.63;;;19.00;99.90;;;;;;5086295;28;20614;-84
2022/07/26 02:31:56;;;;;;;17.27;5.20;;;19.00;99.90;;;;;;5090970;28;20250;-83
2022/07/26 02:34:23;;;;;;;18.58;4.57;;;19.00;99.90;;;;;;5083572;28;20552;-84
2022/07/26 02:36:50;;;;;;;15.63;4.57;;;19.00;99.90;;;;;;5090613;28;20203;-85
2022/07/26 02:39:21;;;;;;;15.35;5.00;;;18.80;99.90;;;;;;5084081;28;20203;-85
2022/07/26 02:41:48;;;;;;;15.68;4.93;;;19.00;99.90;;;;;;5085499;28;20212;-85
2022/07/26 02:44:15;;;;;;;17.58;5.30;;;18.90;99.90;;;;;;5085656;28;20195;-85
2022/07/26 02:46:41;;;;;;;16.60;5.03;;;18.90;99.90;;;;;;5088797;28;20269;-84
2022/07/26 02:49:08;;;;;;;17.17;5.32;;;18.80;99.90;;;;;;5084324;28;20216;-86
2022/07/26 02:51:36;;;;;;;18.27;4.97;;;18.80;99.90;;;;;;5084543;28;20203;-85
2022/07/26 02:54:03;;;;;;;17.77;4.88;;;18.80;99.90;;;;;;5085542;28;20623;-84
2022/07/26 02:56:30;;;;;;;18.58;5.38;;;18.80;99.90;;;;;;5088586;28;20601;-85
2022/07/26 02:58:57;;;;;;;16.40;5.32;;;18.80;99.90;;;;;;5077680;28;20200;-83
2022/07/26 03:01:24;;;;;;;15.57;5.30;;;18.70;99.90;;;;;;5084662;28;20286;-85
2022/07/26 03:03:51;;;;;;;18.75;5.65;;;18.80;99.90;;;;;;5081573;28;20228;-84
2022/07/26 03:06:19;;;;;;;19.30;4.88;;;18.70;99.90;;;;;;5087150;28;20261;-85
2022/07/26 03:08:47;;;;;;;18.80;5.43;;;18.70;99.90;;;;;;5088796;28;20231;-86
2022/07/26 03:11:15;;;;;;;20.33;5.20;;;18.70;99.90;;;;;;5081609;28;20622;-86
2022/07/26 03:13:42;;;;;;;13.77;4.78;;;18.60;99.90;;;;;;5086460;28;20216;-87
2022/07/26 03:16:09;;;;;;;13.23;5.10;;;18.90;99.90;;;;;;5087374;28;20211;-86
2022/07/26 03:18:37;;;;;;;14.65;4.78;;;18.60;99.90;;;;;;5087286;28;20212;-86
2022/07/26 03:21:05;;;;;;;16.15;5.18;;;18.70;99.90;;;;;;5085991;28;20905;-86
2022/07/26 03:23:33;;;;;;;15.82;4.90;;;18.60;99.90;;;;;;5086581;28;20200;-83
2022/07/26 03:26:03;;;;;;;17.63;5.15;;;18.50;99.90;;;;;;5087098;28;20199;-85
2022/07/26 03:28:31;;;;;;;14.65;4.78;;;18.70;99.90;;;;;;5087091;28;20214;-85
2022/07/26 03:30:59;;;;;;;18.25;4.95;;;18.50;99.90;;;;;;5080117;28;20209;-85
2022/07/26 03:33:26;;;;;;;13.27;5.45;;;18.60;99.90;;;;;;5087038;28;20228;-85
2022/07/26 03:35:53;;;;;;;21.55;5.53;;;18.60;99.90;;;;;;5082311;28;20199;-85
2022/07/26 03:38:21;;;;;;;19.10;5.25;;;19.10;99.90;;;;;;5082707;28;20295;-84
2022/07/26 03:40:48;;;;;;;18.02;5.22;;;18.50;99.90;;;;;;5086890;28;20204;-85
2022/07/26 03:43:15;;;;;;;17.58;5.55;;;18.50;99.90;;;;;;5077612;28;20634;-84
2022/07/26 03:45:45;;;;;;;16.23;4.88;;;18.00;99.90;;;;;;5078985;28;20203;-87
2022/07/26 03:48:12;;;;;;;16.58;5.20;;;18.50;99.90;;;;;;5087378;28;20271;-85
2022/07/26 03:50:39;;;;;;;19.98;5.47;;;18.50;99.90;;;;;;5088414;28;20227;-84
2022/07/26 03:53:07;;;;;;;11.27;4.82;;;18.60;99.90;;;;;;5087210;28;20206;-85
2022/07/26 03:58:22;;;;;;;15.15;4.82;;;18.40;99.90;;;;;;5078454;28;20247;-84
2022/07/26 04:00:49;;;;;;;11.05;4.90;;;18.40;99.90;;;;;;5078559;28;20574;-84
2022/07/26 04:03:16;;;;;;;17.30;4.90;;;18.40;99.90;;;;;;5085345;28;20269;-85
2022/07/26 04:05:43;;;;;;;14.93;5.38;;;18.70;99.90;;;;;;5080618;28;20192;-85
2022/07/26 04:08:15;;;;;;;14.77;4.47;;;18.90;99.90;;;;;;5087170;28;20231;-86
2022/07/26 04:10:51;;;;;;;12.45;4.43;;;18.50;99.90;;;;;;5083552;28;20200;-85
2022/07/26 04:13:34;;;;;;;16.92;4.60;;;18.50;99.90;;;;;;5054374;28;20203;-85
2022/07/26 04:16:02;;;;;;;16.10;4.22;;;18.50;99.90;;;;;;5073476;28;20213;-86
2022/07/26 04:18:30;;;;;;;9.57;5.00;;;18.50;99.90;;;;;;5079147;28;20220;-84
2022/07/26 04:20:57;;;;;;;16.23;4.60;;;18.50;99.90;;;;;;5093239;28;21003;-87
2022/07/26 04:23:24;;;;;;;13.02;4.90;;;18.40;99.90;;;;;;5084898;28;20203;-85
2022/07/26 04:25:51;;;;;;;14.82;5.10;;;18.50;99.90;;;;;;5083389;28;20295;-84
2022/07/26 04:28:18;;;;;;;7.50;3.83;;;18.40;99.90;;;;;;5082193;28;20231;-84
2022/07/26 04:30:48;;;;;;;8.82;4.10;;;18.40;99.90;;;;;;5075805;28;20208;-84
2022/07/26 04:33:20;;;;;;;10.63;4.32;;;18.40;99.90;;;;;;5090905;28;20699;-85
2022/07/26 04:35:47;;;;;;;14.30;4.30;;;18.40;99.90;;;;;;5087532;28;20200;-86
2022/07/26 04:38:14;;;;;;;12.48;3.83;;;18.40;99.90;;;;;;5093679;28;20207;-88
2022/07/26 04:40:42;;;;;;;10.95;4.10;;;18.40;99.90;;;;;;5082211;28;20200;-88
2022/07/26 04:43:10;;;;;;;13.07;4.28;;;18.50;99.90;;;;;;5091247;28;20204;-88
2022/07/26 04:45:44;;;;;;;8.40;3.60;;;18.40;99.90;;;;;;5088577;28;20192;-85
2022/07/26 04:48:12;;;;;;;9.60;4.05;;;18.30;99.90;;;;;;5088716;28;20285;-85
2022/07/26 04:50:39;;;;;;;9.15;3.65;;;18.40;99.90;;;;;;5090689;28;20245;-85
2022/07/26 04:53:06;;;;;;;11.00;3.97;;;18.40;99.90;;;;;;5109655;28;20184;-86
2022/07/26 04:55:34;;;;;;;10.60;3.85;;;18.30;99.90;;;;;;5108937;28;20269;-87
2022/07/26 04:58:01;;;;;;;8.25;3.58;;;18.60;99.90;;;;;;5092081;28;20678;-86
2022/07/26 05:00:34;;;;;;;6.85;3.60;;;18.80;99.90;;;;;;5088396;28;20204;-86
2022/07/26 05:03:25;;;;;;;9.63;4.03;;;18.70;99.90;;;;;;5075299;28;20243;-86
2022/07/26 05:05:57;;;;;;;10.13;4.97;;;18.50;99.90;;;;;;5039908;28;20235;-86
2022/07/26 05:08:24;;;;;;;9.25;4.00;;;18.50;99.90;;;;;;5033412;28;20236;-85
2022/07/26 05:10:51;;;;;;;9.18;4.50;;;18.40;99.90;;;;;;5049688;28;20197;-87
2022/07/26 05:13:24;;;;;;;9.98;3.72;;;18.60;99.90;;;;;;5057984;28;20236;-88
2022/07/26 05:15:59;;;;;;;9.30;4.13;;;18.70;99.90;;;;;;5041434;28;20212;-87
2022/07/26 05:18:28;;;;;;;11.43;3.90;;;18.80;99.90;;;;;;5036267;28;20248;-86
2022/07/26 05:21:09;;;;;;;12.20;4.80;;;18.80;99.90;;;;;;5060068;28;20209;-87
2022/07/26 05:23:36;;;;;;;13.52;4.55;;;18.80;99.90;;;;;;5058749;28;20219;-87
2022/07/26 05:26:03;;;;;;;9.90;4.03;;;18.80;99.90;;;;;;5050344;28;20295;-86
2022/07/26 05:28:30;;;;;;;10.10;3.63;;;18.90;99.90;;;;;;5037831;28;20238;-85
2022/07/26 05:30:57;;;;;;;8.82;3.33;;;18.90;99.90;;;;;;5041935;28;20740;-87
2022/07/26 05:33:27;;;;;;;10.85;3.47;;;19.00;99.90;;;;;;5038339;28;20235;-87
2022/07/26 05:36:28;;;;;;;8.30;3.50;;;19.00;99.90;;;;;;5035055;28;20205;-92
2022/07/26 05:38:56;;;;;;;6.30;3.22;;;19.20;99.90;;;;;;5045120;28;20265;-85
2022/07/26 05:41:23;;;;;;;5.50;3.42;;;20.10;99.90;;;;;;5052029;28;20330;-84
2022/07/26 05:43:51;;;;;;;9.48;3.40;;;20.20;99.90;;;;;;5053937;28;20205;-83
2022/07/26 05:46:20;;;;;;;6.03;3.00;;;19.70;99.90;;;;;;5041616;28;20208;-85
2022/07/26 05:48:47;;;;;;;8.80;4.00;;;19.40;99.90;;;;;;5046134;28;20239;-83
2022/07/26 05:51:14;;;;;;;6.65;3.40;;;19.50;99.90;;;;;;5038145;28;20897;-85
2022/07/26 05:53:44;;;;;;;6.22;3.35;;;19.50;99.90;;;;;;5041063;28;20215;-85
2022/07/26 05:56:11;;;;;;;8.55;3.50;;;19.50;99.90;;;;;;5064339;28;20228;-85
2022/07/26 05:58:38;;;;;;;8.90;3.00;;;19.50;99.90;;;;;;5043542;28;20296;-88
2022/07/26 06:01:06;;;;;;;7.85;3.10;;;19.40;99.90;;;;;;5054163;28;20213;-86
2022/07/26 06:03:34;;;;;;;9.05;3.03;;;19.40;99.90;;;;;;5064196;28;20239;-86
2022/07/26 06:06:01;;;;;;;4.82;3.20;;;19.40;99.90;;;;;;5081931;28;20207;-88
2022/07/26 06:08:33;;;;;;;6.55;2.47;;;19.30;99.90;;;;;;5083415;28;20271;-85
2022/07/26 06:11:01;;;;;;;8.13;2.35;;;19.30;99.90;;;;;;5085071;28;20203;-86
2022/07/26 06:13:28;;;;;;;8.43;2.38;;;19.10;99.90;;;;;;5088002;28;20235;-88
2022/07/26 06:15:59;;;;;;;8.25;2.67;;;19.00;99.90;;;;;;5091099;28;20656;-88
2022/07/26 06:18:31;;;;;;;12.10;2.92;;;18.80;99.90;;;;;;5096806;28;20311;-89
2022/07/26 06:21:01;;;;;;;6.80;2.63;;;18.60;99.90;;;;;;5102052;28;20207;-90
2022/07/26 06:23:28;;;;;;;4.80;2.30;;;18.60;99.90;;;;;;5104419;28;20253;-88
2022/07/26 06:26:03;;;;;;;4.10;2.42;;;18.40;99.90;;;;;;5108607;28;20244;-88
2022/07/26 06:28:33;;;;;;;5.82;2.10;;;18.40;99.90;;;;;;5099897;28;20317;-90
2022/07/26 06:31:00;;;;;;;5.22;2.85;;;18.30;99.90;;;;;;5089957;28;20197;-88
2022/07/26 06:33:50;;;;;;;4.20;2.15;;;18.70;99.90;;;;;;5082090;28;20227;-88
2022/07/26 06:36:21;;;;;;;5.38;2.63;;;18.40;99.90;;;;;;5095979;28;20195;-89
2022/07/26 06:38:57;;;;;;;5.07;2.53;;;17.80;99.90;;;;;;5096641;28;20303;-89
2022/07/26 06:41:27;;;;;;;8.57;2.67;;;17.90;99.90;;;;;;5092861;28;21117;-87
2022/07/26 06:43:55;;;;;;;5.25;2.72;;;18.40;99.90;;;;;;5097265;28;20199;-88
2022/07/26 06:46:30;;;;;;;5.90;2.00;;;18.70;99.90;;;;;;5079268;28;20262;-85
2022/07/26 06:48:57;;;;;;;4.25;1.83;;;18.60;99.90;;;;;;5096859;28;20305;-86
2022/07/26 06:51:36;;;;;;;5.45;2.00;;;18.60;99.90;;;;;;5089236;28;20203;-89
2022/07/26 06:54:04;;;;;;;5.00;2.13;;;18.70;99.90;;;;;;5086130;28;20237;-87
2022/07/26 06:56:32;;;;;;;5.15;2.20;;;18.70;99.90;;;;;;5096791;28;20652;-88
2022/07/26 06:59:00;;;;;;;5.32;1.90;;;18.90;99.90;;;;;;5086718;28;20700;-87
2022/07/26 07:01:35;;;;;;;8.00;2.47;;;18.90;99.90;;;;;;5094317;28;20207;-86
2022/07/26 07:04:23;;;;;;;7.32;2.33;;;18.70;99.90;;;;;;5087739;28;20372;-86
2022/07/26 07:06:51;;;;;;;5.72;2.28;;;18.60;99.90;;;;;;5092954;28;20211;-86
2022/07/26 07:09:23;;;;;;;4.00;1.90;;;18.70;99.90;;;;;;5080893;28;20723;-86
2022/07/26 07:11:53;;;;;;;5.95;1.70;;;18.60;99.90;;;;;;5086939;28;20322;-87
2022/07/26 07:14:34;;;;;;;7.03;1.88;;;18.70;99.90;;;;;;5092322;28;20283;-88
2022/07/26 07:17:11;;;;;;;4.00;1.50;;;18.30;99.90;;;;;;5102000;28;20274;-89
2022/07/26 07:19:48;;;;;;;4.90;1.60;;;18.40;99.90;;;;;;5075351;28;20207;-88
2022/07/26 07:22:18;;;;;;;7.47;1.70;;;18.20;99.90;;;;;;5102224;28;20204;-88
2022/07/26 07:24:48;;;;;;;4.40;1.60;;;17.80;99.90;;;;;;5100557;28;20200;-88
2022/07/26 07:27:20;;;;;;;5.10;1.47;;;18.10;99.90;;;;;;5088165;28;20200;-88
2022/07/26 07:29:57;;;;;;;4.05;1.55;;;18.10;99.90;;;;;;5097950;28;20239;-90
2022/07/26 07:32:26;;;;;;;4.93;1.50;;;18.10;99.90;;;;;;5085153;28;20203;-89
2022/07/26 07:34:54;;;;;;;4.22;1.63;;;17.60;99.90;;;;;;5097704;28;20203;-88
2022/07/26 07:37:21;;;;;;;4.60;1.45;;;18.20;99.90;;;;;;5089097;28;20251;-87
2022/07/26 07:39:52;;;;;;;5.20;1.60;;;18.20;99.90;;;;;;5083102;28;20254;-88
2022/07/26 07:42:23;;;;;;;7.10;1.58;;;18.20;99.90;;;;;;5086562;28;21134;-86
2022/07/26 07:44:51;;;;;;;4.10;1.40;;;18.50;99.90;;;;;;5084338;28;20211;-87
2022/07/26 07:47:18;;;;;;;7.18;1.50;;;18.20;99.90;;;;;;5092562;28;20216;-88
2022/07/26 07:49:49;;;;;;;5.82;1.70;;;18.30;99.90;;;;;;5093255;28;20304;-86
2022/07/26 07:52:16;;;;;;;4.07;1.25;;;18.30;99.90;;;;;;5083979;28;20195;-86
2022/07/26 07:54:44;;;;;;;7.28;1.60;;;18.40;99.90;;;;;;5089073;28;20203;-86
2022/07/26 07:57:12;;;;;;;3.80;1.70;;;18.60;99.90;;;;;;5086714;28;20258;-87
2022/07/26 07:59:42;;;;;;;5.40;1.63;;;18.60;99.90;;;;;;5079646;28;20295;-85
2022/07/26 08:02:11;;;;;;;7.18;1.60;;;18.50;99.90;;;;;;5098902;28;20311;-86
2022/07/26 08:04:39;;;;;;;2.55;1.35;;;18.50;99.90;;;;;;5088700;28;20317;-89
2022/07/26 08:07:11;;;;;;;4.97;1.50;;;18.30;99.90;;;;;;5089267;28;20220;-87
2022/07/26 08:09:42;;;;;;;3.53;1.20;;;18.50;99.90;;;;;;5092322;28;20564;-87
2022/07/26 08:12:13;;;;;;;6.25;1.33;;;18.50;99.90;;;;;;5084169;28;20298;-87
2022/07/26 08:14:40;;;;;;;2.40;1.20;;;18.20;99.90;;;;;;5089358;28;20196;-85
2022/07/26 08:17:08;;;;;;;2.08;1.10;;;18.10;99.90;;;;;;5085187;28;20215;-86
2022/07/26 08:19:35;;;;;;;7.25;1.55;;;18.00;99.90;;;;;;5088040;28;20211;-86
2022/07/26 08:22:09;;;;;;;2.40;1.20;;;18.30;99.90;;;;;;5080140;28;20222;-85
2022/07/26 08:24:36;;;;;;;2.92;0.90;;;18.20;99.90;;;;;;5088520;28;20218;-87
2022/07/26 08:27:03;;;;;;;2.60;1.00;;;18.20;99.90;;;;;;5086617;28;20618;-86
2022/07/26 08:29:30;;;;;;;5.45;1.27;;;18.30;99.90;;;;;;5087030;28;20355;-84
2022/07/26 08:31:57;;;;;;;2.33;1.33;;;18.40;99.90;;;;;;5085154;28;20261;-87
2022/07/26 08:34:25;;;;;;;5.22;1.15;;;18.70;99.90;;;;;;5087398;28;20299;-84
2022/07/26 08:36:55;;;;;;;3.40;0.80;;;18.20;99.90;;;;;;5082398;28;20317;-85
2022/07/26 08:39:42;;;;;;;3.05;1.20;;;18.70;99.90;;;;;;5080380;28;20224;-84
2022/07/26 08:42:18;;;;;;;1.58;0.80;;;19.00;99.90;;;;;;5085418;28;20203;-84
2022/07/26 08:44:51;;;;;;;2.75;0.90;;;19.10;99.90;;;;;;5081848;28;20313;-86
2022/07/26 08:47:22;;;;;;;3.88;0.95;;;19.20;99.90;;;;;;5087332;28;20990;-86
2022/07/26 08:50:06;;;;;;;2.65;1.02;;;20.00;99.90;;;;;;5083778;28;21037;-84
2022/07/26 08:52:42;;;;;;;4.75;0.88;;;19.60;99.90;;;;;;5087445;28;20207;-84
2022/07/26 08:55:14;;;;;;;4.78;1.20;;;19.80;99.90;;;;;;5083021;28;20211;-86
2022/07/26 08:57:41;;;;;;;2.67;1.13;;;19.70;99.90;;;;;;5079331;28;20203;-84
2022/07/26 09:00:24;;;;;;;3.22;1.00;;;;;;;;;;5079931;28;20216;-83
2022/07/26 09:02:52;;;;;;;8.10;1.42;;;20.30;99.90;;;;;;5081987;28;20249;-87
2022/07/26 09:05:35;;;;;;;2.53;0.80;;;21.10;99.90;;;;;;5081301;28;20321;-84
2022/07/26 09:08:26;;;;;;;3.15;1.20;;;20.70;99.90;;;;;;5083619;28;20302;-83
2022/07/26 09:10:58;;;;;;;3.20;0.90;;;20.90;99.90;;;;;;5079900;28;20212;-83
2022/07/26 09:13:25;;;;;;;6.75;1.20;;;20.80;99.90;;;;;;5077080;28;20660;-86
2022/07/26 09:16:11;;;;;;;7.95;1.40;;;20.90;99.90;;;;;;5077281;28;20202;-84
2022/07/26 09:18:38;;;;;;;4.47;1.17;;;21.00;99.90;;;;;;5093486;28;20213;-85
2022/07/26 09:21:06;;;;;;;5.43;1.10;;;21.20;99.90;;;;;;5101284;28;20194;-85
2022/07/26 09:23:40;;;;;;;3.20;0.98;;;21.00;99.90;;;;;;5106751;28;20206;-83
2022/07/26 09:26:07;;;;;;;3.60;1.20;;;21.20;99.90;;;;;;5111028;27;20215;-85
2022/07/26 09:28:34;;;;;;;6.75;1.10;;;;;;;;;;5090482;28;20225;-84
2022/07/26 09:31:13;;;;;;;2.75;1.30;;;21.40;99.90;;;;;;5095243;28;20210;-84
2022/07/26 09:33:50;;;;;;;6.40;1.00;;;21.60;99.90;;;;;;5088317;28;20246;-83
2022/07/26 09:36:17;;;;;;;4.07;1.10;;;21.90;99.90;;;;;;5084630;28;20196;-83
2022/07/26 09:38:47;;;;;;;3.30;0.90;;;22.10;99.90;;;;;;5086580;28;20670;-83
2022/07/26 09:41:34;;;;;;;3.67;0.80;;;22.30;99.90;;;;;;5088849;28;20207;-84
2022/07/26 09:44:05;;;;;;;2.22;1.00;;;22.50;99.90;;;;;;5097005;28;20289;-83
2022/07/26 09:46:34;;;;;;;5.32;1.30;;;22.60;99.90;;;;;;5099710;28;20542;-86
2022/07/26 09:49:18;;;;;;;3.75;0.73;;;22.50;99.90;;;;;;5103954;28;20228;-87
2022/07/26 09:51:52;;;;;;;6.25;0.98;;;22.10;99.90;;;;;;5096658;28;20317;-87
2022/07/26 09:54:28;;;;;;;4.93;0.90;;;21.50;99.90;;;;;;5095072;28;20203;-84
2022/07/26 09:56:56;;;;;;;2.50;0.88;;;20.90;99.90;;;;;;5079381;28;20277;-86
2022/07/26 09:59:25;;;;;;;3.15;1.13;;;20.40;99.90;;;;;;5091501;28;20199;-84
2022/07/26 10:01:53;;;;;;;5.18;1.00;;;20.10;99.90;;;;;;5086662;28;20235;-83
2022/07/26 10:04:23;;;;;;;5.47;1.33;;;19.90;99.90;;;;;;5079647;28;20251;-84
2022/07/26 10:06:53;;;;;;;3.92;0.98;;;20.00;99.90;;;;;;5087826;28;20199;-84
2022/07/26 10:09:22;;;;;;;3.85;1.10;;;19.90;99.90;;;;;;5094695;28;20241;-84
2022/07/26 10:11:56;;;;;;;2.42;1.23;;;20.10;99.90;;;;;;5083554;28;20196;-84
2022/07/26 10:14:36;;;;;;;2.40;1.15;;;20.30;99.90;;;;;;5080112;28;20203;-84
2022/07/26 10:17:40;;;;;;;3.80;1.50;;;20.60;99.90;;;;;;5075356;28;20236;-84
2022/07/26 10:20:10;;;;;;;3.67;0.90;;;20.90;99.90;;;;;;5082274;28;20203;-84
2022/07/26 10:22:51;;;;;;;3.95;0.90;;;21.40;99.90;;;;;;5074409;28;20236;-85
2022/07/26 10:25:19;;;;;;;3.50;0.93;;;21.90;99.90;;;;;;5075221;28;20208;-84
2022/07/26 10:27:53;;;;;;;2.40;0.77;;;22.40;99.90;;;;;;5078683;28;20231;-85
2022/07/26 10:30:21;;;;;;;1.33;0.70;;;22.70;99.90;;;;;;5077791;28;20246;-85
2022/07/26 10:33:12;;;;;;;3.35;0.80;;;22.80;99.90;;;;;;5084291;28;20223;-83
2022/07/26 10:35:43;;;;;;;4.07;1.00;;;23.00;99.90;;;;;;5082863;28;20286;-83
2022/07/26 10:38:21;;;;;;;2.25;0.80;;;23.20;99.90;;;;;;5084132;28;20368;-83
2022/07/26 10:41:06;;;;;;;3.30;0.90;;;23.30;99.90;;;;;;5087380;28;20252;-83
2022/07/26 10:43:33;;;;;;;3.83;0.80;;;23.40;99.90;;;;;;5082443;28;20211;-83
2022/07/26 10:46:17;;;;;;;4.90;1.30;;;23.50;99.90;;;;;;5082807;28;20656;-83
2022/07/26 10:49:00;;;;;;;3.53;0.70;;;23.60;99.90;;;;;;5080480;28;20230;-83
2022/07/26 10:51:37;;;;;;;2.78;0.80;;;23.80;99.90;;;;;;5081413;28;20261;-84
2022/07/26 10:54:11;;;;;;;4.78;0.90;;;23.60;99.90;;;;;;5088875;28;20210;-82
2022/07/26 10:56:39;;;;;;;5.03;1.08;;;23.70;99.90;;;;;;5080726;28;20223;-82
2022/07/26 10:59:07;;;;;;;4.00;0.88;;;23.80;99.90;;;;;;5086111;28;20200;-84
2022/07/26 11:01:37;;;;;;;2.80;0.70;;;23.80;99.90;;;;;;5082025;28;20217;-84
2022/07/26 11:04:06;;;;;;;2.53;0.82;;;23.70;99.90;;;;;;5079771;28;20362;-83
2022/07/26 11:06:33;;;;;;;3.00;0.82;;;23.70;99.90;;;;;;5083870;28;20204;-83
2022/07/26 11:09:09;;;;;;;1.90;1.10;;;23.60;99.90;;;;;;5084042;28;20227;-85
2022/07/26 11:11:36;;;;;;;5.45;1.10;;;23.50;99.90;;;;;;5082986;28;20253;-85
2022/07/26 11:14:13;;;;;;;4.43;1.30;;;23.10;99.90;;;;;;5086672;28;20196;-83
2022/07/26 11:16:43;;;;;;;5.22;1.10;;;22.70;99.90;;;;;;5085625;28;20221;-83
2022/07/26 11:19:15;;;;;;;3.58;0.90;;;22.30;99.90;;;;;;5083740;28;20203;-84
2022/07/26 11:21:44;;;;;;;4.00;1.00;;;22.20;99.90;;;;;;5083867;28;20204;-83
2022/07/26 11:24:12;;;;;;;2.63;1.10;;;22.10;99.90;;;;;;5080062;28;20212;-83
2022/07/26 11:26:41;;;;;;;6.43;1.65;;;22.20;99.90;;;;;;5078573;28;20647;-83
2022/07/26 11:29:12;;;;;;;5.70;1.30;;;22.30;99.90;;;;;;5079216;28;20226;-84
2022/07/26 11:31:46;;;;;;;7.75;1.42;;;22.70;99.90;;;;;;5079057;28;20213;-85
2022/07/26 11:34:23;;;;;;;5.43;1.15;;;23.10;99.90;;;;;;5080920;28;20886;-83
2022/07/26 11:36:52;;;;;;;4.30;1.38;;;23.40;99.90;;;;;;5083093;28;20732;-84
2022/07/26 11:39:25;;;;;;;5.35;1.67;;;23.50;99.90;;;;;;5081293;28;20211;-85
2022/07/26 11:42:03;;;;;;;3.33;1.10;;;23.60;99.90;;;;;;5084364;28;20196;-82
2022/07/26 11:44:32;;;;;;;6.05;1.08;;;23.80;99.90;;;;;;5083384;28;20203;-87
2022/07/26 11:47:09;;;;;;;6.10;1.08;;;23.80;99.90;;;;;;5079376;28;20207;-85
2022/07/26 11:49:36;;;;;;;4.60;1.15;;;23.70;99.90;;;;;;5081815;28;20223;-82
2022/07/26 11:52:29;;;;;;;4.47;1.10;;;23.50;99.90;;;;;;5082970;28;20282;-84
2022/07/26 11:54:59;;;;;;;4.25;1.10;;;23.50;99.90;;;;;;5083107;28;20195;-83
2022/07/26 11:57:30;;;;;;;2.97;1.30;;;23.60;99.90;;;;;;5086093;28;20200;-85
2022/07/26 11:59:59;;;;;;;4.15;1.48;;;23.80;99.90;;;;;;5077370;28;20224;-83
2022/07/26 12:02:28;;;;;;;4.95;1.42;;;23.90;99.90;;;;;;5077778;28;20641;-85
2022/07/26 12:05:16;;;;;;;4.97;1.30;;;23.80;99.90;;;;;;5082488;28;20247;-86
2022/07/26 12:08:03;;;;;;;6.57;1.73;;;23.90;99.90;;;;;;5081201;28;20212;-86
2022/07/26 12:10:30;;;;;;;5.20;1.55;;;23.90;99.90;;;;;;5081509;28;20793;-84
2022/07/26 12:13:13;;;;;;;6.70;1.65;;;23.70;99.90;;;;;;5079697;28;20287;-85
2022/07/26 12:15:49;;;;;;;7.45;1.75;;;23.60;99.90;;;;;;5084960;28;20195;-85
2022/07/26 12:18:28;;;;;;;8.30;1.80;;;23.30;99.90;;;;;;5079377;28;20216;-86
2022/07/26 12:21:01;;;;;;;5.28;1.92;;;23.10;99.90;;;;;;5080834;28;21062;-85
2022/07/26 12:23:47;;;;;;;6.75;1.88;;;23.00;99.90;;;;;;5082495;28;20207;-84
2022/07/26 12:26:25;;;;;;;7.65;2.47;;;23.10;99.90;;;;;;5079271;28;20204;-84
2022/07/26 12:28:53;;;;;;;5.03;1.48;;;23.40;99.90;;;;;;5082283;28;20198;-84
2022/07/26 12:31:30;;;;;;;6.90;2.08;;;23.70;99.90;;;;;;5080840;28;20275;-83
2022/07/26 12:34:00;;;;;;;5.15;1.60;;;23.90;99.90;;;;;;5084483;28;20321;-84
2022/07/26 12:36:27;;;;;;;5.50;1.42;;;23.80;99.90;;;;;;5083095;28;20199;-83
2022/07/26 12:38:58;;;;;;;6.38;2.00;;;23.70;99.90;;;;;;5090218;28;20661;-85
2022/07/26 12:41:38;;;;;;;6.43;1.67;;;23.60;99.90;;;;;;5079899;28;20206;-85
2022/07/26 12:44:06;;;;;;;6.25;1.70;;;23.60;99.90;;;;;;5082899;28;20683;-85
2022/07/26 12:46:34;;;;;;;7.53;1.85;;;23.40;99.90;;;;;;5077937;28;20208;-86
2022/07/26 12:49:03;;;;;;;7.63;2.13;;;23.50;99.90;;;;;;5079258;28;20801;-84
2022/07/26 12:51:30;;;;;;;9.07;2.10;;;23.50;99.90;;;;;;5077844;28;20235;-85
2022/07/26 12:53:57;;;;;;;7.43;1.75;;;23.50;99.90;;;;;;5087145;28;20206;-85
2022/07/26 12:56:24;;;;;;;4.93;1.55;;;23.70;99.90;;;;;;5082947;28;20227;-83
2022/07/26 12:58:52;;;;;;;6.20;1.70;;;23.50;99.90;;;;;;5084898;28;20196;-85
2022/07/26 13:01:20;;;;;;;9.48;2.08;;;23.60;99.90;;;;;;5080810;28;20232;-84
2022/07/26 13:03:47;;;;;;;6.40;1.50;;;23.50;99.90;;;;;;5082308;28;20218;-84
2022/07/26 13:06:14;;;;;;;7.28;1.60;;;23.60;99.90;;;;;;5082844;28;20258;-86